sensor_id;sensor_type;location;lat;lon;timestamp;temperature;humidity
9800;DHT22;4939;52.00085300;4.17406100;2023-07-13T00:01:19;18.30;99.90
9800;DHT22;4939;52.00085300;4.17406100;2023-07-13T00:03:45;18.30;99.90
9800;DHT22;4939;52.00085300;4.17406100;2023-07-13T00:06:11;18.30;99.90
9800;DHT22;4939;52.00085300;4.17406100;2023-07-13T00:08:36;18.20;99.90
9800;DHT22;4939;52.00085300;4.17406100;2023-07-13T00:11:03;18.20;99.90
9800;DHT22;4939;52.00085300;4.17406100;2023-07-13T00:13:30;18.20;99.90
9800;DHT22;4939;52.00085300;4.17406100;2023-07-13T00:15:57;18.10;99.90
9800;DHT22;4939;52.00085300;4.17406100;2023-07-13T00:18:24;18.00;99.90
9800;DHT22;4939;52.00085300;4.17406100;2023-07-13T00:20:49;18.00;99.90
9800;DHT22;4939;52.00085300;4.17406100;2023-07-13T00:23:15;17.90;99.90
9800;DHT22;4939;52.00085300;4.17406100;2023-07-13T00:25:42;17.90;99.90
9800;DHT22;4939;52.00085300;4.17406100;2023-07-13T00:28:08;17.90;99.90
9800;DHT22;4939;52.00085300;4.17406100;2023-07-13T00:30:34;17.90;99.90
9800;DHT22;4939;52.00085300;4.17406100;2023-07-13T00:32:59;17.80;99.90
9800;DHT22;4939;52.00085300;4.17406100;2023-07-13T00:35:27;17.80;99.90
9800;DHT22;4939;52.00085300;4.17406100;2023-07-13T00:37:55;17.80;99.90
9800;DHT22;4939;52.00085300;4.17406100;2023-07-13T00:40:21;17.90;99.90
9800;DHT22;4939;52.00085300;4.17406100;2023-07-13T00:42:47;17.70;99.90
9800;DHT22;4939;52.00085300;4.17406100;2023-07-13T00:47:39;17.60;99.90
9800;DHT22;4939;52.00085300;4.17406100;2023-07-13T00:50:08;17.70;99.90
9800;DHT22;4939;52.00085300;4.17406100;2023-07-13T00:52:40;17.70;99.90
9800;DHT22;4939;52.00085300;4.17406100;2023-07-13T00:55:08;17.80;99.90
9800;DHT22;4939;52.00085300;4.17406100;2023-07-13T00:57:35;17.70;99.90
9800;DHT22;4939;52.00085300;4.17406100;2023-07-13T01:00:04;17.60;99.90
9800;DHT22;4939;52.00085300;4.17406100;2023-07-13T01:02:41;17.60;99.90
9800;DHT22;4939;52.00085300;4.17406100;2023-07-13T01:05:16;17.60;99.90
9800;DHT22;4939;52.00085300;4.17406100;2023-07-13T01:07:43;17.50;99.90
9800;DHT22;4939;52.00085300;4.17406100;2023-07-13T01:10:12;17.50;99.90
9800;DHT22;4939;52.00085300;4.17406100;2023-07-13T01:12:38;17.50;99.90
9800;DHT22;4939;52.00085300;4.17406100;2023-07-13T01:15:05;17.50;99.90
9800;DHT22;4939;52.00085300;4.17406100;2023-07-13T01:17:34;17.40;99.90
9800;DHT22;4939;52.00085300;4.17406100;2023-07-13T01:20:00;17.50;99.90
9800;DHT22;4939;52.00085300;4.17406100;2023-07-13T01:22:25;17.40;99.90
9800;DHT22;4939;52.00085300;4.17406100;2023-07-13T01:24:54;17.40;99.90
9800;DHT22;4939;52.00085300;4.17406100;2023-07-13T01:27:23;17.50;99.90
9800;DHT22;4939;52.00085300;4.17406100;2023-07-13T01:29:51;18.40;99.90
9800;DHT22;4939;52.00085300;4.17406100;2023-07-13T01:32:22;17.50;99.90
9800;DHT22;4939;52.00085300;4.17406100;2023-07-13T01:34:53;17.50;99.90
9800;DHT22;4939;52.00085300;4.17406100;2023-07-13T01:37:19;17.50;99.90
9800;DHT22;4939;52.00085300;4.17406100;2023-07-13T01:39:45;17.50;99.90
9800;DHT22;4939;52.00085300;4.17406100;2023-07-13T01:42:12;17.50;99.90
9800;DHT22;4939;52.00085300;4.17406100;2023-07-13T01:44:38;17.60;99.90
9800;DHT22;4939;52.00085300;4.17406100;2023-07-13T01:47:04;17.70;99.90
9800;DHT22;4939;52.00085300;4.17406100;2023-07-13T01:49:29;17.50;99.90
9800;DHT22;4939;52.00085300;4.17406100;2023-07-13T01:51:55;17.60;99.90
9800;DHT22;4939;52.00085300;4.17406100;2023-07-13T01:54:22;17.60;99.90
9800;DHT22;4939;52.00085300;4.17406100;2023-07-13T01:56:48;17.60;99.90
9800;DHT22;4939;52.00085300;4.17406100;2023-07-13T01:59:14;17.60;99.90
9800;DHT22;4939;52.00085300;4.17406100;2023-07-13T02:01:39;17.60;99.90
9800;DHT22;4939;52.00085300;4.17406100;2023-07-13T02:04:05;17.60;99.90
9800;DHT22;4939;52.00085300;4.17406100;2023-07-13T02:06:31;17.70;99.90
9800;DHT22;4939;52.00085300;4.17406100;2023-07-13T02:08:58;17.70;99.90
9800;DHT22;4939;52.00085300;4.17406100;2023-07-13T02:11:23;17.70;99.90
9800;DHT22;4939;52.00085300;4.17406100;2023-07-13T02:13:50;17.60;99.90
9800;DHT22;4939;52.00085300;4.17406100;2023-07-13T02:16:17;17.60;99.90
9800;DHT22;4939;52.00085300;4.17406100;2023-07-13T02:18:43;17.60;99.90
9800;DHT22;4939;52.00085300;4.17406100;2023-07-13T02:21:08;17.50;99.90
9800;DHT22;4939;52.00085300;4.17406100;2023-07-13T02:23:34;17.60;99.90
9800;DHT22;4939;52.00085300;4.17406100;2023-07-13T02:26:01;17.60;99.90
9800;DHT22;4939;52.00085300;4.17406100;2023-07-13T02:28:28;17.60;99.90
9800;DHT22;4939;52.00085300;4.17406100;2023-07-13T02:30:53;17.70;99.90
9800;DHT22;4939;52.00085300;4.17406100;2023-07-13T02:33:19;17.70;99.90
9800;DHT22;4939;52.00085300;4.17406100;2023-07-13T02:35:45;17.70;99.90
9800;DHT22;4939;52.00085300;4.17406100;2023-07-13T02:38:11;17.70;99.90
9800;DHT22;4939;52.00085300;4.17406100;2023-07-13T02:40:36;17.60;99.90
9800;DHT22;4939;52.00085300;4.17406100;2023-07-13T02:43:03;17.70;99.90
9800;DHT22;4939;52.00085300;4.17406100;2023-07-13T02:45:29;17.60;99.90
9800;DHT22;4939;52.00085300;4.17406100;2023-07-13T02:47:55;17.60;99.90
9800;DHT22;4939;52.00085300;4.17406100;2023-07-13T02:50:20;17.70;99.90
9800;DHT22;4939;52.00085300;4.17406100;2023-07-13T02:52:46;17.70;99.90
9800;DHT22;4939;52.00085300;4.17406100;2023-07-13T02:55:12;17.70;99.90
9800;DHT22;4939;52.00085300;4.17406100;2023-07-13T02:57:38;17.70;99.90
9800;DHT22;4939;52.00085300;4.17406100;2023-07-13T03:00:04;17.80;99.90
9800;DHT22;4939;52.00085300;4.17406100;2023-07-13T03:02:31;17.70;99.90
9800;DHT22;4939;52.00085300;4.17406100;2023-07-13T03:04:58;17.70;99.90
9800;DHT22;4939;52.00085300;4.17406100;2023-07-13T03:07:24;17.80;99.90
9800;DHT22;4939;52.00085300;4.17406100;2023-07-13T03:09:55;17.80;99.90
9800;DHT22;4939;52.00085300;4.17406100;2023-07-13T03:12:22;17.80;99.90
9800;DHT22;4939;52.00085300;4.17406100;2023-07-13T03:14:49;17.70;99.90
9800;DHT22;4939;52.00085300;4.17406100;2023-07-13T03:17:14;17.80;99.90
9800;DHT22;4939;52.00085300;4.17406100;2023-07-13T03:19:40;17.80;99.90
9800;DHT22;4939;52.00085300;4.17406100;2023-07-13T03:22:06;17.80;99.90
9800;DHT22;4939;52.00085300;4.17406100;2023-07-13T03:24:35;17.80;99.90
9800;DHT22;4939;52.00085300;4.17406100;2023-07-13T03:27:05;18.50;99.90
9800;DHT22;4939;52.00085300;4.17406100;2023-07-13T03:29:31;17.80;99.90
9800;DHT22;4939;52.00085300;4.17406100;2023-07-13T03:31:56;17.70;99.90
9800;DHT22;4939;52.00085300;4.17406100;2023-07-13T03:34:22;17.70;99.90
9800;DHT22;4939;52.00085300;4.17406100;2023-07-13T03:36:48;17.70;99.90
9800;DHT22;4939;52.00085300;4.17406100;2023-07-13T03:39:14;17.70;99.90
9800;DHT22;4939;52.00085300;4.17406100;2023-07-13T03:41:39;17.70;99.90
9800;DHT22;4939;52.00085300;4.17406100;2023-07-13T03:44:05;17.70;99.90
9800;DHT22;4939;52.00085300;4.17406100;2023-07-13T03:46:31;17.80;99.90
9800;DHT22;4939;52.00085300;4.17406100;2023-07-13T03:48:57;17.80;99.90
9800;DHT22;4939;52.00085300;4.17406100;2023-07-13T03:51:23;17.80;99.90
9800;DHT22;4939;52.00085300;4.17406100;2023-07-13T03:53:49;17.80;99.90
9800;DHT22;4939;52.00085300;4.17406100;2023-07-13T03:56:16;17.80;99.90
9800;DHT22;4939;52.00085300;4.17406100;2023-07-13T03:58:45;17.70;99.90
9800;DHT22;4939;52.00085300;4.17406100;2023-07-13T04:01:11;17.80;99.90
9800;DHT22;4939;52.00085300;4.17406100;2023-07-13T04:03:38;17.80;99.90
9800;DHT22;4939;52.00085300;4.17406100;2023-07-13T04:06:05;17.90;99.90
9800;DHT22;4939;52.00085300;4.17406100;2023-07-13T04:08:36;17.80;99.90
9800;DHT22;4939;52.00085300;4.17406100;2023-07-13T04:11:03;17.90;99.90
9800;DHT22;4939;52.00085300;4.17406100;2023-07-13T04:13:29;17.90;99.90
9800;DHT22;4939;52.00085300;4.17406100;2023-07-13T04:15:55;17.90;99.90
9800;DHT22;4939;52.00085300;4.17406100;2023-07-13T04:18:21;18.00;99.90
9800;DHT22;4939;52.00085300;4.17406100;2023-07-13T04:20:47;18.00;99.90
9800;DHT22;4939;52.00085300;4.17406100;2023-07-13T04:23:13;18.10;99.90
9800;DHT22;4939;52.00085300;4.17406100;2023-07-13T04:25:42;18.10;99.90
9800;DHT22;4939;52.00085300;4.17406100;2023-07-13T04:28:08;18.20;99.90
9800;DHT22;4939;52.00085300;4.17406100;2023-07-13T04:30:34;18.20;99.90
9800;DHT22;4939;52.00085300;4.17406100;2023-07-13T04:33:00;18.20;99.90
9800;DHT22;4939;52.00085300;4.17406100;2023-07-13T04:35:26;18.20;99.90
9800;DHT22;4939;52.00085300;4.17406100;2023-07-13T04:37:52;18.20;99.90
9800;DHT22;4939;52.00085300;4.17406100;2023-07-13T04:40:19;18.20;99.90
9800;DHT22;4939;52.00085300;4.17406100;2023-07-13T04:42:45;18.20;99.90
9800;DHT22;4939;52.00085300;4.17406100;2023-07-13T04:45:12;18.20;99.90
9800;DHT22;4939;52.00085300;4.17406100;2023-07-13T04:47:38;18.20;99.90
9800;DHT22;4939;52.00085300;4.17406100;2023-07-13T04:50:04;18.40;99.90
9800;DHT22;4939;52.00085300;4.17406100;2023-07-13T04:52:30;18.20;99.90
9800;DHT22;4939;52.00085300;4.17406100;2023-07-13T04:54:56;18.30;99.90
9800;DHT22;4939;52.00085300;4.17406100;2023-07-13T04:57:22;18.30;99.90
9800;DHT22;4939;52.00085300;4.17406100;2023-07-13T04:59:49;18.30;99.90
9800;DHT22;4939;52.00085300;4.17406100;2023-07-13T05:02:14;18.20;99.90
9800;DHT22;4939;52.00085300;4.17406100;2023-07-13T05:04:40;18.30;99.90
9800;DHT22;4939;52.00085300;4.17406100;2023-07-13T05:07:06;18.30;99.90
9800;DHT22;4939;52.00085300;4.17406100;2023-07-13T05:09:32;18.20;99.90
9800;DHT22;4939;52.00085300;4.17406100;2023-07-13T05:11:57;18.20;99.90
9800;DHT22;4939;52.00085300;4.17406100;2023-07-13T05:14:24;18.30;99.90
9800;DHT22;4939;52.00085300;4.17406100;2023-07-13T05:16:50;18.20;99.90
9800;DHT22;4939;52.00085300;4.17406100;2023-07-13T05:19:15;18.30;99.90
9800;DHT22;4939;52.00085300;4.17406100;2023-07-13T05:21:41;18.30;99.90
9800;DHT22;4939;52.00085300;4.17406100;2023-07-13T05:24:07;18.40;99.90
9800;DHT22;4939;52.00085300;4.17406100;2023-07-13T05:26:32;18.40;99.90
9800;DHT22;4939;52.00085300;4.17406100;2023-07-13T05:28:58;18.60;99.90
9800;DHT22;4939;52.00085300;4.17406100;2023-07-13T05:31:24;18.60;99.90
9800;DHT22;4939;52.00085300;4.17406100;2023-07-13T05:33:51;18.70;99.90
9800;DHT22;4939;52.00085300;4.17406100;2023-07-13T05:36:17;18.70;99.90
9800;DHT22;4939;52.00085300;4.17406100;2023-07-13T05:38:42;18.70;99.90
9800;DHT22;4939;52.00085300;4.17406100;2023-07-13T05:41:09;18.60;99.90
9800;DHT22;4939;52.00085300;4.17406100;2023-07-13T05:43:35;18.60;99.90
9800;DHT22;4939;52.00085300;4.17406100;2023-07-13T05:46:01;18.50;99.90
9800;DHT22;4939;52.00085300;4.17406100;2023-07-13T05:48:26;18.40;99.90
9800;DHT22;4939;52.00085300;4.17406100;2023-07-13T05:50:52;18.40;99.90
9800;DHT22;4939;52.00085300;4.17406100;2023-07-13T05:53:18;18.40;99.90
9800;DHT22;4939;52.00085300;4.17406100;2023-07-13T05:55:47;18.40;99.90
9800;DHT22;4939;52.00085300;4.17406100;2023-07-13T05:58:17;18.40;99.90
9800;DHT22;4939;52.00085300;4.17406100;2023-07-13T06:00:43;18.30;99.90
9800;DHT22;4939;52.00085300;4.17406100;2023-07-13T06:03:08;18.30;99.90
9800;DHT22;4939;52.00085300;4.17406100;2023-07-13T06:05:35;18.40;99.90
9800;DHT22;4939;52.00085300;4.17406100;2023-07-13T06:08:02;18.50;99.90
9800;DHT22;4939;52.00085300;4.17406100;2023-07-13T06:10:32;18.60;99.90
9800;DHT22;4939;52.00085300;4.17406100;2023-07-13T06:12:57;18.90;99.90
9800;DHT22;4939;52.00085300;4.17406100;2023-07-13T06:15:23;19.10;99.90
9800;DHT22;4939;52.00085300;4.17406100;2023-07-13T06:17:48;19.30;99.90
9800;DHT22;4939;52.00085300;4.17406100;2023-07-13T06:20:14;19.30;99.90
9800;DHT22;4939;52.00085300;4.17406100;2023-07-13T06:22:40;19.10;99.90
9800;DHT22;4939;52.00085300;4.17406100;2023-07-13T06:25:06;19.00;99.90
9800;DHT22;4939;52.00085300;4.17406100;2023-07-13T06:27:32;18.80;99.90
9800;DHT22;4939;52.00085300;4.17406100;2023-07-13T06:29:58;18.80;99.90
9800;DHT22;4939;52.00085300;4.17406100;2023-07-13T06:32:25;18.80;99.90
9800;DHT22;4939;52.00085300;4.17406100;2023-07-13T06:34:51;19.00;99.90
9800;DHT22;4939;52.00085300;4.17406100;2023-07-13T06:37:18;19.20;99.90
9800;DHT22;4939;52.00085300;4.17406100;2023-07-13T06:39:44;19.40;99.90
9800;DHT22;4939;52.00085300;4.17406100;2023-07-13T06:42:09;19.50;99.90
9800;DHT22;4939;52.00085300;4.17406100;2023-07-13T06:44:35;19.50;99.90
9800;DHT22;4939;52.00085300;4.17406100;2023-07-13T06:47:01;19.40;99.90
9800;DHT22;4939;52.00085300;4.17406100;2023-07-13T06:49:26;19.20;99.90
9800;DHT22;4939;52.00085300;4.17406100;2023-07-13T06:51:52;19.10;99.90
9800;DHT22;4939;52.00085300;4.17406100;2023-07-13T06:54:18;19.00;99.90
9800;DHT22;4939;52.00085300;4.17406100;2023-07-13T06:56:43;19.20;99.90
9800;DHT22;4939;52.00085300;4.17406100;2023-07-13T06:59:09;19.20;99.90
9800;DHT22;4939;52.00085300;4.17406100;2023-07-13T07:01:35;19.30;99.90
9800;DHT22;4939;52.00085300;4.17406100;2023-07-13T07:04:00;19.30;99.90
9800;DHT22;4939;52.00085300;4.17406100;2023-07-13T07:06:26;19.40;99.90
9800;DHT22;4939;52.00085300;4.17406100;2023-07-13T07:08:52;19.40;99.90
9800;DHT22;4939;52.00085300;4.17406100;2023-07-13T07:11:22;19.30;99.90
9800;DHT22;4939;52.00085300;4.17406100;2023-07-13T07:13:49;19.10;99.90
9800;DHT22;4939;52.00085300;4.17406100;2023-07-13T07:16:15;19.20;99.90
9800;DHT22;4939;52.00085300;4.17406100;2023-07-13T07:18:41;19.20;99.90
9800;DHT22;4939;52.00085300;4.17406100;2023-07-13T07:21:08;19.30;99.90
9800;DHT22;4939;52.00085300;4.17406100;2023-07-13T07:23:34;19.40;99.90
9800;DHT22;4939;52.00085300;4.17406100;2023-07-13T07:26:00;19.40;99.90
9800;DHT22;4939;52.00085300;4.17406100;2023-07-13T07:28:26;19.40;99.90
9800;DHT22;4939;52.00085300;4.17406100;2023-07-13T07:30:55;19.50;99.90
9800;DHT22;4939;52.00085300;4.17406100;2023-07-13T07:33:21;19.60;99.90
9800;DHT22;4939;52.00085300;4.17406100;2023-07-13T07:35:47;19.50;99.90
9800;DHT22;4939;52.00085300;4.17406100;2023-07-13T07:38:12;19.60;99.90
9800;DHT22;4939;52.00085300;4.17406100;2023-07-13T07:40:39;19.40;99.90
9800;DHT22;4939;52.00085300;4.17406100;2023-07-13T07:43:07;19.40;99.90
9800;DHT22;4939;52.00085300;4.17406100;2023-07-13T07:45:33;19.50;99.90
9800;DHT22;4939;52.00085300;4.17406100;2023-07-13T07:47:58;19.50;99.90
9800;DHT22;4939;52.00085300;4.17406100;2023-07-13T07:50:27;19.70;99.90
9800;DHT22;4939;52.00085300;4.17406100;2023-07-13T07:52:54;19.70;99.90
9800;DHT22;4939;52.00085300;4.17406100;2023-07-13T07:55:22;19.70;99.90
9800;DHT22;4939;52.00085300;4.17406100;2023-07-13T07:57:48;19.70;99.90
9800;DHT22;4939;52.00085300;4.17406100;2023-07-13T08:00:15;20.00;99.90
9800;DHT22;4939;52.00085300;4.17406100;2023-07-13T08:02:41;20.10;99.90
9800;DHT22;4939;52.00085300;4.17406100;2023-07-13T08:05:08;20.20;99.90
9800;DHT22;4939;52.00085300;4.17406100;2023-07-13T08:07:37;20.20;99.90
9800;DHT22;4939;52.00085300;4.17406100;2023-07-13T08:10:03;20.20;99.90
9800;DHT22;4939;52.00085300;4.17406100;2023-07-13T08:12:29;20.10;99.90
9800;DHT22;4939;52.00085300;4.17406100;2023-07-13T08:14:55;19.90;99.90
9800;DHT22;4939;52.00085300;4.17406100;2023-07-13T08:17:24;19.90;99.90
9800;DHT22;4939;52.00085300;4.17406100;2023-07-13T08:19:50;19.80;99.90
9800;DHT22;4939;52.00085300;4.17406100;2023-07-13T08:22:16;20.10;99.90
9800;DHT22;4939;52.00085300;4.17406100;2023-07-13T08:24:42;20.20;99.90
9800;DHT22;4939;52.00085300;4.17406100;2023-07-13T08:27:11;21.60;99.90
9800;DHT22;4939;52.00085300;4.17406100;2023-07-13T08:29:37;20.10;99.90
9800;DHT22;4939;52.00085300;4.17406100;2023-07-13T08:32:05;20.50;99.90
9800;DHT22;4939;52.00085300;4.17406100;2023-07-13T08:34:31;20.50;99.90
9800;DHT22;4939;52.00085300;4.17406100;2023-07-13T08:36:57;20.90;99.90
9800;DHT22;4939;52.00085300;4.17406100;2023-07-13T08:39:23;20.70;99.90
9800;DHT22;4939;52.00085300;4.17406100;2023-07-13T08:41:52;20.90;99.90
9800;DHT22;4939;52.00085300;4.17406100;2023-07-13T08:44:30;20.70;99.90
9800;DHT22;4939;52.00085300;4.17406100;2023-07-13T08:47:02;20.70;99.90
9800;DHT22;4939;52.00085300;4.17406100;2023-07-13T08:49:28;20.90;99.90
9800;DHT22;4939;52.00085300;4.17406100;2023-07-13T08:52:02;20.90;99.90
9800;DHT22;4939;52.00085300;4.17406100;2023-07-13T08:54:37;20.70;99.90
9800;DHT22;4939;52.00085300;4.17406100;2023-07-13T08:57:12;20.60;99.90
9800;DHT22;4939;52.00085300;4.17406100;2023-07-13T08:59:38;20.80;99.90
9800;DHT22;4939;52.00085300;4.17406100;2023-07-13T09:05:00;21.20;99.90
9800;DHT22;4939;52.00085300;4.17406100;2023-07-13T09:07:50;21.50;99.90
9800;DHT22;4939;52.00085300;4.17406100;2023-07-13T09:10:27;21.70;99.90
9800;DHT22;4939;52.00085300;4.17406100;2023-07-13T09:13:03;21.80;99.90
9800;DHT22;4939;52.00085300;4.17406100;2023-07-13T09:15:41;21.50;99.90
9800;DHT22;4939;52.00085300;4.17406100;2023-07-13T09:21:03;21.00;99.90
9800;DHT22;4939;52.00085300;4.17406100;2023-07-13T09:23:31;20.80;99.90
9800;DHT22;4939;52.00085300;4.17406100;2023-07-13T09:26:12;20.70;99.90
9800;DHT22;4939;52.00085300;4.17406100;2023-07-13T09:28:42;20.70;99.90
9800;DHT22;4939;52.00085300;4.17406100;2023-07-13T09:31:32;20.80;99.90
9800;DHT22;4939;52.00085300;4.17406100;2023-07-13T09:33:59;20.50;99.90
9800;DHT22;4939;52.00085300;4.17406100;2023-07-13T09:36:31;20.60;99.90
9800;DHT22;4939;52.00085300;4.17406100;2023-07-13T09:41:44;20.90;99.90
9800;DHT22;4939;52.00085300;4.17406100;2023-07-13T09:44:15;20.70;99.90
9800;DHT22;4939;52.00085300;4.17406100;2023-07-13T09:46:52;21.20;99.90
9800;DHT22;4939;52.00085300;4.17406100;2023-07-13T09:49:24;21.90;99.90
9800;DHT22;4939;52.00085300;4.17406100;2023-07-13T09:51:58;22.00;99.90
9800;DHT22;4939;52.00085300;4.17406100;2023-07-13T09:54:26;21.80;99.90
9800;DHT22;4939;52.00085300;4.17406100;2023-07-13T09:56:59;21.70;99.90
9800;DHT22;4939;52.00085300;4.17406100;2023-07-13T09:59:40;22.30;99.90
9800;DHT22;4939;52.00085300;4.17406100;2023-07-13T10:02:32;22.20;99.90
9800;DHT22;4939;52.00085300;4.17406100;2023-07-13T10:05:11;21.90;99.90
9800;DHT22;4939;52.00085300;4.17406100;2023-07-13T10:07:43;21.60;99.90
9800;DHT22;4939;52.00085300;4.17406100;2023-07-13T10:10:21;21.30;99.90
9800;DHT22;4939;52.00085300;4.17406100;2023-07-13T10:12:49;21.30;99.90
9800;DHT22;4939;52.00085300;4.17406100;2023-07-13T10:15:18;21.30;99.90
9800;DHT22;4939;52.00085300;4.17406100;2023-07-13T10:17:45;22.00;99.90
9800;DHT22;4939;52.00085300;4.17406100;2023-07-13T10:20:14;22.60;99.90
9800;DHT22;4939;52.00085300;4.17406100;2023-07-13T10:23:01;22.80;99.90
9800;DHT22;4939;52.00085300;4.17406100;2023-07-13T10:25:37;23.10;99.90
9800;DHT22;4939;52.00085300;4.17406100;2023-07-13T10:28:25;22.70;99.90
9800;DHT22;4939;52.00085300;4.17406100;2023-07-13T10:30:53;22.00;99.90
9800;DHT22;4939;52.00085300;4.17406100;2023-07-13T10:33:21;21.50;99.90
9800;DHT22;4939;52.00085300;4.17406100;2023-07-13T10:35:50;21.30;99.90
9800;DHT22;4939;52.00085300;4.17406100;2023-07-13T10:38:22;21.10;99.90
9800;DHT22;4939;52.00085300;4.17406100;2023-07-13T10:41:04;21.30;99.90
9800;DHT22;4939;52.00085300;4.17406100;2023-07-13T10:43:36;21.30;99.90
9800;DHT22;4939;52.00085300;4.17406100;2023-07-13T10:46:05;21.20;99.90
9800;DHT22;4939;52.00085300;4.17406100;2023-07-13T10:48:31;21.40;99.90
9800;DHT22;4939;52.00085300;4.17406100;2023-07-13T10:51:01;21.50;99.90
9800;DHT22;4939;52.00085300;4.17406100;2023-07-13T10:53:31;21.80;99.90
9800;DHT22;4939;52.00085300;4.17406100;2023-07-13T10:56:05;21.80;99.90
9800;DHT22;4939;52.00085300;4.17406100;2023-07-13T10:58:41;21.70;99.90
9800;DHT22;4939;52.00085300;4.17406100;2023-07-13T11:01:18;22.00;99.90
9800;DHT22;4939;52.00085300;4.17406100;2023-07-13T11:08:55;22.00;99.90
9800;DHT22;4939;52.00085300;4.17406100;2023-07-13T11:21:29;22.40;99.90
9800;DHT22;4939;52.00085300;4.17406100;2023-07-13T11:31:41;22.30;99.90
9800;DHT22;4939;52.00085300;4.17406100;2023-07-13T11:34:13;22.60;99.90
9800;DHT22;4939;52.00085300;4.17406100;2023-07-13T11:36:43;22.70;99.90
9800;DHT22;4939;52.00085300;4.17406100;2023-07-13T11:41:50;22.50;99.90
9800;DHT22;4939;52.00085300;4.17406100;2023-07-13T11:44:20;22.70;99.90
9800;DHT22;4939;52.00085300;4.17406100;2023-07-13T11:46:48;23.20;99.90
9800;DHT22;4939;52.00085300;4.17406100;2023-07-13T11:49:25;23.10;99.90
9800;DHT22;4939;52.00085300;4.17406100;2023-07-13T11:51:53;22.60;99.90
9800;DHT22;4939;52.00085300;4.17406100;2023-07-13T11:54:27;22.60;99.90
9800;DHT22;4939;52.00085300;4.17406100;2023-07-13T11:57:01;22.50;99.90
9800;DHT22;4939;52.00085300;4.17406100;2023-07-13T11:59:29;22.30;99.90
9800;DHT22;4939;52.00085300;4.17406100;2023-07-13T12:01:55;22.10;99.90
9800;DHT22;4939;52.00085300;4.17406100;2023-07-13T12:04:27;22.10;99.90
9800;DHT22;4939;52.00085300;4.17406100;2023-07-13T12:07:07;22.00;99.90
9800;DHT22;4939;52.00085300;4.17406100;2023-07-13T12:09:35;22.10;99.90
9800;DHT22;4939;52.00085300;4.17406100;2023-07-13T12:12:03;21.80;99.90
9800;DHT22;4939;52.00085300;4.17406100;2023-07-13T12:14:29;21.60;99.90
9800;DHT22;4939;52.00085300;4.17406100;2023-07-13T12:16:55;21.60;99.90
9800;DHT22;4939;52.00085300;4.17406100;2023-07-13T12:19:29;21.60;99.90
9800;DHT22;4939;52.00085300;4.17406100;2023-07-13T12:21:59;22.00;99.90
9800;DHT22;4939;52.00085300;4.17406100;2023-07-13T12:24:25;21.90;99.90
9800;DHT22;4939;52.00085300;4.17406100;2023-07-13T12:27:19;22.10;99.90
9800;DHT22;4939;52.00085300;4.17406100;2023-07-13T12:29:58;22.10;99.90
9800;DHT22;4939;52.00085300;4.17406100;2023-07-13T12:32:25;22.40;99.90
9800;DHT22;4939;52.00085300;4.17406100;2023-07-13T12:34:56;22.40;99.90
9800;DHT22;4939;52.00085300;4.17406100;2023-07-13T12:37:23;22.40;99.90
9800;DHT22;4939;52.00085300;4.17406100;2023-07-13T12:39:49;22.00;99.90
9800;DHT22;4939;52.00085300;4.17406100;2023-07-13T12:42:31;21.60;99.90
9800;DHT22;4939;52.00085300;4.17406100;2023-07-13T12:45:21;21.60;99.90
9800;DHT22;4939;52.00085300;4.17406100;2023-07-13T12:47:52;22.00;99.90
9800;DHT22;4939;52.00085300;4.17406100;2023-07-13T12:50:23;22.10;99.90
9800;DHT22;4939;52.00085300;4.17406100;2023-07-13T12:52:59;21.80;99.90
9800;DHT22;4939;52.00085300;4.17406100;2023-07-13T12:55:27;21.80;99.90
9800;DHT22;4939;52.00085300;4.17406100;2023-07-13T12:57:56;22.20;99.90
9800;DHT22;4939;52.00085300;4.17406100;2023-07-13T13:02:57;22.00;99.90
9800;DHT22;4939;52.00085300;4.17406100;2023-07-13T13:05:26;21.90;99.90
9800;DHT22;4939;52.00085300;4.17406100;2023-07-13T13:07:52;21.90;99.90
9800;DHT22;4939;52.00085300;4.17406100;2023-07-13T13:10:18;22.00;99.90
9800;DHT22;4939;52.00085300;4.17406100;2023-07-13T13:12:43;22.10;99.90
9800;DHT22;4939;52.00085300;4.17406100;2023-07-13T13:15:10;22.10;99.90
9800;DHT22;4939;52.00085300;4.17406100;2023-07-13T13:17:37;22.30;99.90
9800;DHT22;4939;52.00085300;4.17406100;2023-07-13T13:20:18;22.40;99.90
9800;DHT22;4939;52.00085300;4.17406100;2023-07-13T13:22:47;22.20;99.90
9800;DHT22;4939;52.00085300;4.17406100;2023-07-13T13:25:14;22.10;99.90
9800;DHT22;4939;52.00085300;4.17406100;2023-07-13T13:27:44;22.10;99.90
9800;DHT22;4939;52.00085300;4.17406100;2023-07-13T13:30:16;22.30;99.90
9800;DHT22;4939;52.00085300;4.17406100;2023-07-13T13:32:46;22.30;99.90
9800;DHT22;4939;52.00085300;4.17406100;2023-07-13T13:35:18;22.60;99.90
9800;DHT22;4939;52.00085300;4.17406100;2023-07-13T13:37:44;22.90;99.90
9800;DHT22;4939;52.00085300;4.17406100;2023-07-13T13:40:16;22.90;99.90
9800;DHT22;4939;52.00085300;4.17406100;2023-07-13T13:42:43;22.40;99.90
9800;DHT22;4939;52.00085300;4.17406100;2023-07-13T13:45:12;22.30;99.90
9800;DHT22;4939;52.00085300;4.17406100;2023-07-13T13:47:39;22.30;99.90
9800;DHT22;4939;52.00085300;4.17406100;2023-07-13T13:50:17;22.80;99.90
9800;DHT22;4939;52.00085300;4.17406100;2023-07-13T13:52:45;22.70;99.90
9800;DHT22;4939;52.00085300;4.17406100;2023-07-13T13:55:17;22.80;99.90
9800;DHT22;4939;52.00085300;4.17406100;2023-07-13T13:57:45;22.90;99.90
9800;DHT22;4939;52.00085300;4.17406100;2023-07-13T14:00:12;22.80;99.90
9800;DHT22;4939;52.00085300;4.17406100;2023-07-13T14:02:42;22.70;99.90
9800;DHT22;4939;52.00085300;4.17406100;2023-07-13T14:05:13;22.70;99.90
9800;DHT22;4939;52.00085300;4.17406100;2023-07-13T14:07:40;23.00;99.90
9800;DHT22;4939;52.00085300;4.17406100;2023-07-13T14:10:14;22.80;99.90
9800;DHT22;4939;52.00085300;4.17406100;2023-07-13T14:12:42;22.70;99.90
9800;DHT22;4939;52.00085300;4.17406100;2023-07-13T14:15:20;22.80;99.90
9800;DHT22;4939;52.00085300;4.17406100;2023-07-13T14:17:46;22.60;99.90
9800;DHT22;4939;52.00085300;4.17406100;2023-07-13T14:20:15;22.40;99.90
9800;DHT22;4939;52.00085300;4.17406100;2023-07-13T14:22:41;22.40;99.90
9800;DHT22;4939;52.00085300;4.17406100;2023-07-13T14:25:11;22.70;99.90
9800;DHT22;4939;52.00085300;4.17406100;2023-07-13T14:27:38;22.70;99.90
9800;DHT22;4939;52.00085300;4.17406100;2023-07-13T14:30:16;22.80;99.90
9800;DHT22;4939;52.00085300;4.17406100;2023-07-13T14:32:42;23.00;99.90